Blackfoot, ID

1:10 AM MDT on September 03, 2014 (GMT -0600)
MyIdahoWeather.com | Change Station
CLOSE
Current Station
Personal Weather Station
Location: Blackfoot, ID
Elevation: 4534 ft
Nearby Weather Stations

Elev 4534 ft 43.27 °N, 112.52 °W | Updated 2 seconds ago

Clear
Clear
48.5 °F
Feels Like 46 °F
N
6.1
Wind Variable Wind from NNW
Gusts 6.9 mph

Today
High -- | Low -- °F
--% Chance of Precip.
Yesterday
High -- | Low -- °F
Precip. -- in
6:55 AM 8:01 PM
First Quarter, 59% visible
Pressure 29.69 in
Visibility 10.0 miles
Clouds Clear
Windchill 46 °F
Dew Point 38 °F
Humidity 67%
Rainfall 0.00 in
Snow Depth Not available.
UV 0.0 out of 12
Pollen 8.10 out of 12
PM2.5 Good
Flu Activity Not available.
METAR KIDA 030653Z AUTO 00000KT 10SM CLR 13/04 A2980 RMK AO2 SLP053 T01280044 402720044

More Conditions Fewer Conditions

Pressure 29.69 in
Visibility 10.0 miles
Clouds Clear
Windchill 46 °F
Dew Point 38 °F
Humidity 67%
Rainfall 0.00 in
Snow Depth Not available.
UV 0.0 out of 12
Pollen 8.10 out of 12
PM2.5 Good
Flu Activity Not available.
METAR KIDA 030653Z AUTO 00000KT 10SM CLR 13/04 A2980 RMK AO2 SLP053 T01280044 402720044

More Conditions Fewer Conditions

10-Day Weather Forecast

Almanac

Astronomy

Sep. 03, 2014 Rise Set
Actual Time 6:55 AM MDT 8:01 PM MDT
Civil Twilight 6:26 AM MDT 8:30 PM MDT
Nautical Twilight 5:51 AM MDT 9:05 PM MDT
Astronomical Twilight 5:14 AM MDT 9:41 PM MDT
Moon 3:52 PM MDT 12:48 AM MDT
Length of Visible Light 14h 03m
Length of Day
13h 05m
Tomorrow will be 2m 52s shorter.
First Quarter, 59% of the Moon is Illuminated
Today
First Quarter
Sep 8
Full
Sep 15
Last Quarter
Sep 24
New
Oct 1
First Quarter

Today's Extremes

State Highs State Lows

Community

WunderPhotos

Upload Photos

1,749,888 photos uploaded!

Nearby

Air Quality

  Air Quality AQ Index Pollutant
Yesterday Good
PM2.5
Current Good
PM2.5
Tuesday Good
PM2.5
Wednesday Good
PM2.5

Snow Depth

Station Depth Elevation
Sheep Mountain 0 in 6570 ft
Wildhorse Divide 0 in 6490 ft
Somsen Ranch 1 in 6800 ft
Oxford Spring 0 in 6740 ft
Emigrant Summit 0 in 7390 ft

Earthquake Activity

City Distance Mag. Time & Date
No recent earthquake activity has been reported nearby.
Minimum magnitude displayed is 2.5.

Coastal Water Temperatures

Place Temperature
No Stations Reporting

Nearby Weather Stations